createdAt,value
2018-07-09T00:01:42.527Z,23.67
2018-07-09T00:04:11.917Z,23.64
2018-07-09T00:06:41.169Z,23.61
2018-07-09T00:09:10.517Z,23.62
2018-07-09T00:11:39.858Z,23.60
2018-07-09T00:14:09.121Z,23.59
2018-07-09T00:16:38.466Z,23.59
2018-07-09T00:19:07.750Z,23.62
2018-07-09T00:21:37.159Z,23.61
2018-07-09T00:24:06.636Z,23.28
2018-07-09T00:26:36.565Z,23.10
2018-07-09T00:29:06.180Z,23.15
2018-07-09T00:31:35.886Z,23.15
2018-07-09T00:34:05.814Z,23.25
2018-07-09T00:36:35.237Z,23.25
2018-07-09T00:39:05.334Z,23.24
2018-07-09T00:41:35.237Z,23.11
2018-07-09T00:44:04.601Z,23.14
2018-07-09T00:46:33.879Z,23.14
2018-07-09T00:49:03.254Z,22.80
2018-07-09T00:51:32.795Z,22.55
2018-07-09T00:54:01.924Z,22.58
2018-07-09T00:56:31.130Z,22.25
2018-07-09T00:59:00.724Z,22.53
2018-07-09T01:01:30.050Z,22.69
2018-07-09T01:03:59.335Z,22.71
2018-07-09T01:06:28.570Z,22.55
2018-07-09T01:08:57.746Z,22.54
2018-07-09T01:11:38.109Z,22.57
2018-07-09T01:14:07.490Z,22.54
2018-07-09T01:16:36.726Z,22.46
2018-07-09T01:19:06.000Z,22.41
2018-07-09T01:21:35.438Z,22.25
2018-07-09T01:24:04.673Z,22.20
2018-07-09T01:26:33.920Z,22.13
2018-07-09T01:29:03.175Z,22.30
2018-07-09T01:31:32.412Z,22.38
2018-07-09T01:34:01.677Z,22.34
2018-07-09T01:36:30.920Z,22.26
2018-07-09T01:39:00.199Z,22.17
2018-07-09T01:41:30.632Z,22.25
2018-07-09T01:43:59.908Z,22.22
2018-07-09T01:46:29.246Z,22.26
2018-07-09T01:48:58.552Z,22.24
2018-07-09T01:51:27.870Z,22.21
2018-07-09T01:53:57.414Z,22.06
2018-07-09T01:56:26.649Z,22.04
2018-07-09T01:58:55.893Z,21.87
2018-07-09T02:01:25.131Z,21.90
2018-07-09T02:03:54.406Z,22.00
2018-07-09T02:06:23.735Z,21.96
2018-07-09T02:08:52.993Z,21.86
2018-07-09T02:11:22.259Z,21.93
2018-07-09T02:13:51.714Z,22.01
2018-07-09T02:16:20.947Z,21.82
2018-07-09T02:18:50.246Z,21.78
2018-07-09T02:21:19.651Z,21.81
2018-07-09T02:23:48.952Z,21.68
2018-07-09T02:26:18.374Z,21.81
2018-07-09T02:28:47.632Z,21.89
2018-07-09T02:31:17.000Z,21.80
2018-07-09T02:33:46.231Z,21.84
2018-07-09T02:36:15.642Z,21.84
2018-07-09T02:38:45.012Z,21.93
2018-07-09T02:41:14.260Z,21.94
2018-07-09T02:43:43.561Z,21.90
2018-07-09T02:46:12.861Z,21.84
2018-07-09T02:48:42.164Z,21.81
2018-07-09T02:51:11.474Z,21.76
2018-07-09T02:53:40.743Z,21.79
2018-07-09T02:56:10.174Z,21.78
2018-07-09T02:58:39.438Z,21.82
2018-07-09T03:01:08.944Z,21.72
2018-07-09T03:03:38.239Z,21.76
2018-07-09T03:06:07.595Z,21.85
2018-07-09T03:08:36.850Z,21.74
2018-07-09T03:11:06.406Z,21.80
2018-07-09T03:13:35.683Z,21.65
2018-07-09T03:16:04.982Z,21.47
2018-07-09T03:18:34.387Z,21.54
2018-07-09T03:21:03.763Z,21.62
2018-07-09T03:23:33.105Z,21.64
2018-07-09T03:26:02.347Z,21.68
2018-07-09T03:28:31.703Z,21.71
2018-07-09T03:31:00.986Z,21.73
2018-07-09T03:33:30.406Z,21.73
2018-07-09T03:35:59.667Z,21.56
2018-07-09T03:38:29.024Z,21.36
2018-07-09T03:40:58.249Z,21.27
2018-07-09T03:43:27.589Z,21.19
2018-07-09T03:45:56.956Z,21.30
2018-07-09T03:48:26.297Z,21.31
2018-07-09T03:50:55.570Z,20.89
2018-07-09T03:53:25.005Z,21.05
2018-07-09T03:55:54.445Z,21.05
2018-07-09T03:58:23.803Z,21.03
2018-07-09T04:00:53.063Z,21.08
2018-07-09T04:03:22.305Z,21.18
2018-07-09T04:05:51.567Z,21.25
2018-07-09T04:08:20.808Z,21.09
2018-07-09T04:10:50.203Z,21.16
2018-07-09T04:13:19.626Z,21.20
2018-07-09T04:15:48.987Z,21.40
2018-07-09T04:18:21.995Z,21.54
2018-07-09T04:20:51.288Z,21.39
2018-07-09T04:23:20.715Z,20.38
2018-07-09T04:25:50.073Z,20.33
2018-07-09T04:28:19.417Z,21.32
2018-07-09T04:30:49.043Z,22.25
2018-07-09T04:33:18.577Z,22.88
2018-07-09T04:35:47.823Z,23.96
2018-07-09T04:38:17.103Z,24.37
2018-07-09T04:40:46.423Z,24.53
2018-07-09T04:43:15.869Z,23.77
2018-07-09T04:45:45.219Z,23.52
2018-07-09T04:48:14.562Z,23.37
2018-07-09T04:50:43.810Z,23.35
2018-07-09T04:53:13.057Z,23.69
2018-07-09T04:55:42.384Z,23.78
2018-07-09T04:58:11.640Z,24.63
2018-07-09T05:00:40.999Z,24.96
2018-07-09T05:03:10.251Z,25.19
2018-07-09T05:05:39.667Z,26.32
2018-07-09T05:08:09.076Z,27.50
2018-07-09T05:10:38.304Z,27.32
2018-07-09T05:13:07.591Z,28.07
2018-07-09T05:15:36.821Z,28.05
2018-07-09T05:18:06.141Z,27.15
2018-07-09T05:20:35.745Z,27.25
2018-07-09T05:23:05.215Z,26.29
2018-07-09T05:25:34.532Z,26.68
2018-07-09T05:28:03.770Z,27.82
2018-07-09T05:30:33.140Z,28.63
2018-07-09T05:33:02.469Z,29.57
2018-07-09T05:35:31.809Z,30.57
2018-07-09T05:38:01.053Z,30.74
2018-07-09T05:40:30.298Z,29.46
2018-07-09T05:42:59.638Z,29.66
2018-07-09T05:45:28.809Z,28.30
2018-07-09T05:47:58.050Z,28.16
2018-07-09T05:50:27.350Z,28.95
2018-07-09T05:52:56.771Z,30.68
2018-07-09T05:55:26.034Z,29.89
2018-07-09T05:57:55.270Z,29.46
2018-07-09T06:00:24.582Z,30.13
2018-07-09T06:02:53.958Z,29.69
2018-07-09T06:05:23.344Z,30.35
2018-07-09T06:07:52.689Z,30.15
2018-07-09T06:10:21.948Z,30.79
2018-07-09T06:12:51.361Z,31.07
2018-07-09T06:15:20.659Z,30.91
2018-07-09T06:17:49.974Z,29.69
2018-07-09T06:20:19.359Z,29.42
2018-07-09T06:22:48.799Z,28.32
2018-07-09T06:25:18.044Z,28.93
2018-07-09T06:27:47.265Z,29.23
2018-07-09T06:30:16.881Z,28.48
2018-07-09T06:32:46.277Z,27.74
2018-07-09T06:35:15.535Z,28.91
2018-07-09T06:37:44.899Z,29.59
2018-07-09T06:40:14.238Z,30.00
2018-07-09T06:42:43.620Z,28.81
2018-07-09T06:45:12.966Z,30.06
2018-07-09T06:47:42.258Z,29.45
2018-07-09T06:50:11.577Z,28.59
2018-07-09T06:52:40.903Z,30.74
2018-07-09T06:55:10.292Z,30.69
2018-07-09T06:57:39.483Z,30.50
2018-07-09T07:00:08.893Z,30.39
2018-07-09T07:02:38.277Z,29.83
2018-07-09T07:05:07.697Z,30.12
2018-07-09T07:07:37.081Z,30.03
2018-07-09T07:10:06.422Z,29.23
2018-07-09T07:12:35.759Z,29.59
2018-07-09T07:15:05.105Z,29.60
2018-07-09T07:17:34.358Z,29.03
2018-07-09T07:20:03.744Z,29.64
2018-07-09T07:22:33.078Z,29.91
2018-07-09T07:25:02.414Z,30.01
2018-07-09T07:27:31.686Z,30.34
2018-07-09T07:30:00.938Z,30.49
2018-07-09T07:32:30.418Z,30.02
2018-07-09T07:34:59.857Z,30.41
2018-07-09T07:37:29.155Z,29.67
2018-07-09T07:39:58.528Z,29.42
2018-07-09T07:42:28.675Z,29.86
2018-07-09T07:44:58.093Z,30.13
2018-07-09T07:47:27.299Z,30.51
2018-07-09T07:49:56.655Z,30.31
2018-07-09T07:52:25.903Z,29.81
2018-07-09T07:54:55.264Z,30.30
2018-07-09T07:57:24.197Z,30.26
2018-07-09T07:59:53.179Z,30.64
2018-07-09T08:02:22.426Z,30.15
2018-07-09T08:04:51.827Z,30.64
2018-07-09T08:07:21.222Z,31.03
2018-07-09T08:09:50.606Z,30.95
2018-07-09T08:14:49.254Z,31.29
2018-07-09T08:17:18.501Z,30.75
2018-07-09T08:19:47.755Z,31.64
2018-07-09T08:22:16.992Z,31.60
2018-07-09T08:24:46.330Z,31.72
2018-07-09T08:27:15.643Z,31.29
2018-07-09T08:29:44.944Z,31.49
2018-07-09T08:32:14.211Z,30.14
2018-07-09T08:34:43.450Z,30.66
2018-07-09T08:37:12.803Z,30.58
2018-07-09T08:39:42.132Z,31.35
2018-07-09T08:42:11.395Z,31.49
2018-07-09T08:44:43.065Z,31.47
2018-07-09T08:47:12.730Z,31.82
2018-07-09T08:49:42.035Z,31.95
2018-07-09T08:52:11.513Z,31.85
2018-07-09T08:54:40.916Z,31.68
2018-07-09T08:57:10.171Z,31.70
2018-07-09T08:59:39.421Z,31.58
2018-07-09T09:02:08.678Z,31.34
2018-07-09T09:04:38.025Z,30.86
2018-07-09T09:07:07.421Z,30.63
2018-07-09T09:09:36.698Z,31.35
2018-07-09T09:12:06.024Z,31.35
2018-07-09T09:14:35.409Z,31.00
2018-07-09T09:17:04.605Z,30.26
2018-07-09T09:19:33.932Z,31.12
2018-07-09T09:22:03.226Z,31.86
2018-07-09T09:24:32.628Z,32.29
2018-07-09T09:27:02.033Z,32.39
2018-07-09T09:29:31.363Z,32.32
2018-07-09T09:32:00.694Z,31.48
2018-07-09T09:34:29.952Z,31.91
2018-07-09T09:36:59.231Z,32.34
2018-07-09T09:39:28.533Z,31.87
2018-07-09T09:41:58.040Z,32.90
2018-07-09T09:44:27.519Z,33.01
2018-07-09T09:46:56.798Z,32.52
2018-07-09T09:49:26.225Z,32.35
2018-07-09T09:51:55.490Z,32.77
2018-07-09T09:54:24.873Z,33.24
2018-07-09T09:56:54.223Z,33.03
2018-07-09T09:59:23.782Z,33.19
2018-07-09T10:01:53.524Z,32.55
2018-07-09T10:04:22.870Z,32.80
2018-07-09T10:06:52.142Z,32.16
2018-07-09T10:09:21.382Z,32.59
2018-07-09T10:11:50.628Z,33.37
2018-07-09T10:14:20.170Z,33.27
2018-07-09T10:16:49.512Z,33.29
2018-07-09T10:19:19.742Z,33.62
2018-07-09T10:21:50.202Z,33.54
2018-07-09T10:24:19.426Z,34.12
2018-07-09T10:26:49.849Z,35.03
2018-07-09T10:29:19.157Z,35.89
2018-07-09T10:31:48.327Z,36.16
2018-07-09T10:34:17.542Z,37.93
2018-07-09T10:36:46.733Z,37.51
2018-07-09T10:39:16.065Z,37.50
2018-07-09T10:48:51.249Z,36.45
2018-07-09T10:51:20.679Z,36.54
2018-07-09T10:53:51.079Z,36.49
2018-07-09T10:56:20.365Z,36.46
2018-07-09T10:58:49.632Z,36.59
2018-07-09T11:01:18.989Z,35.47
2018-07-09T11:03:48.738Z,35.24
2018-07-09T11:06:18.083Z,34.30
2018-07-09T11:08:47.901Z,35.25
2018-07-09T11:11:17.300Z,35.16
2018-07-09T11:13:46.564Z,35.16
2018-07-09T11:16:15.839Z,35.32
2018-07-09T11:18:45.118Z,35.02
2018-07-09T11:21:14.404Z,35.07
2018-07-09T11:23:43.671Z,35.10
2018-07-09T11:26:13.113Z,35.62
2018-07-09T11:28:42.733Z,35.05
2018-07-09T11:31:12.111Z,34.56
2018-07-09T11:33:41.365Z,34.35
2018-07-09T11:36:10.927Z,33.30
2018-07-09T11:38:40.274Z,33.12
2018-07-09T11:41:09.526Z,33.41
2018-07-09T11:43:38.805Z,33.29
2018-07-09T11:46:08.134Z,33.20
2018-07-09T11:48:37.481Z,32.86
2018-07-09T11:51:06.610Z,33.69
2018-07-09T11:53:35.885Z,34.51
2018-07-09T11:56:05.153Z,34.91
2018-07-09T11:58:34.441Z,34.52
2018-07-09T12:01:03.718Z,34.60
2018-07-09T12:03:32.995Z,34.78
2018-07-09T12:06:02.455Z,34.75
2018-07-09T12:08:31.776Z,34.68
2018-07-09T12:11:01.125Z,34.86
2018-07-09T12:13:30.609Z,34.99
2018-07-09T12:16:00.062Z,34.92
2018-07-09T12:18:29.306Z,34.80
2018-07-09T12:20:58.541Z,34.36
2018-07-09T12:23:28.077Z,34.26
2018-07-09T12:25:57.368Z,34.32
2018-07-09T12:28:26.593Z,34.42
2018-07-09T12:30:55.837Z,34.53
2018-07-09T12:33:25.136Z,34.63
2018-07-09T12:35:54.343Z,35.15
2018-07-09T12:38:23.713Z,35.42
2018-07-09T12:40:53.154Z,34.51
2018-07-09T12:43:22.407Z,34.57
2018-07-09T12:45:51.872Z,34.49
2018-07-09T12:48:21.214Z,34.41
2018-07-09T12:50:50.651Z,34.09
2018-07-09T12:53:19.963Z,34.53
2018-07-09T12:55:49.339Z,34.44
2018-07-09T12:58:18.680Z,35.15
2018-07-09T13:00:47.968Z,34.79
2018-07-09T13:03:17.235Z,35.03
2018-07-09T13:05:46.666Z,35.18
2018-07-09T13:08:16.064Z,35.50
2018-07-09T13:10:45.421Z,35.78
2018-07-09T13:13:14.655Z,36.02
2018-07-09T13:15:44.476Z,35.46
2018-07-09T13:18:13.764Z,34.89
2018-07-09T13:20:42.769Z,34.81
2018-07-09T13:23:11.737Z,34.64
2018-07-09T13:25:40.770Z,34.75
2018-07-09T13:28:09.787Z,34.18
2018-07-09T13:30:38.829Z,34.83
2018-07-09T13:33:07.804Z,35.32
2018-07-09T13:35:37.154Z,35.43
2018-07-09T13:38:06.649Z,34.73
2018-07-09T13:40:36.052Z,34.46
2018-07-09T13:43:05.418Z,34.09
2018-07-09T13:45:35.221Z,34.77
2018-07-09T13:48:04.602Z,35.45
2018-07-09T13:50:34.529Z,35.17
2018-07-09T13:53:03.907Z,34.33
2018-07-09T13:55:33.138Z,33.50
2018-07-09T13:58:02.484Z,34.12
2018-07-09T14:00:31.754Z,34.56
2018-07-09T14:03:01.094Z,34.62
2018-07-09T14:05:30.436Z,34.66
2018-07-09T14:07:59.774Z,34.43
2018-07-09T14:10:29.152Z,34.23
2018-07-09T14:12:59.270Z,33.90
2018-07-09T14:15:28.922Z,33.76
2018-07-09T14:17:59.043Z,34.38
2018-07-09T14:20:30.830Z,34.39
2018-07-09T14:23:00.773Z,34.59
2018-07-09T14:25:30.097Z,33.64
2018-07-09T14:27:59.507Z,34.42
2018-07-09T14:30:28.874Z,33.89
2018-07-09T14:32:58.133Z,34.57
2018-07-09T14:35:29.159Z,32.40
2018-07-09T14:37:58.382Z,34.05
2018-07-09T14:40:27.884Z,33.86
2018-07-09T14:42:57.242Z,34.27
2018-07-09T14:45:26.578Z,34.15
2018-07-09T14:47:55.995Z,34.27
2018-07-09T14:50:25.221Z,34.62
2018-07-09T14:52:54.562Z,33.91
2018-07-09T14:55:23.862Z,34.14
2018-07-09T14:57:53.270Z,34.19
2018-07-09T15:00:22.625Z,34.69
2018-07-09T15:02:54.379Z,34.34
2018-07-09T15:05:23.608Z,34.24
2018-07-09T15:07:52.975Z,34.09
2018-07-09T15:10:22.243Z,34.67
2018-07-09T15:12:51.551Z,34.85
2018-07-09T15:15:20.814Z,35.12
2018-07-09T15:17:50.232Z,34.61
2018-07-09T15:20:19.674Z,34.53
2018-07-09T15:22:49.063Z,34.29
2018-07-09T15:25:18.349Z,34.31
2018-07-09T15:27:47.654Z,34.31
2018-07-09T15:30:16.951Z,33.58
2018-07-09T15:32:46.145Z,33.93
2018-07-09T15:35:15.446Z,34.15
2018-07-09T15:37:44.850Z,34.27
2018-07-09T15:40:14.221Z,33.80
2018-07-09T15:42:43.755Z,33.35
2018-07-09T15:45:13.082Z,32.78
2018-07-09T15:47:42.596Z,33.08
2018-07-09T15:50:11.858Z,32.80
2018-07-09T15:52:41.177Z,32.76
2018-07-09T15:55:10.462Z,33.54
2018-07-09T15:57:39.983Z,33.65
2018-07-09T16:00:09.271Z,33.46
2018-07-09T16:02:39.503Z,33.13
2018-07-09T16:05:08.965Z,33.50
2018-07-09T16:07:38.463Z,33.62
2018-07-09T16:10:08.019Z,33.92
2018-07-09T16:12:37.514Z,34.24
2018-07-09T16:15:07.201Z,33.94
2018-07-09T16:17:36.554Z,34.33
2018-07-09T16:20:05.806Z,33.82
2018-07-09T16:22:34.979Z,33.79
2018-07-09T16:25:04.314Z,33.61
2018-07-09T16:27:33.626Z,33.13
2018-07-09T16:30:03.123Z,32.68
2018-07-09T16:32:32.458Z,32.70
2018-07-09T16:35:01.840Z,32.90
2018-07-09T16:37:30.849Z,33.16
2018-07-09T16:39:59.816Z,32.99
2018-07-09T16:42:28.925Z,32.90
2018-07-09T16:44:58.201Z,31.89
2018-07-09T16:47:27.518Z,30.75
2018-07-09T16:49:56.893Z,29.99
2018-07-09T16:52:26.277Z,29.62
2018-07-09T16:54:55.560Z,29.62
2018-07-09T16:57:24.813Z,29.45
2018-07-09T16:59:54.124Z,29.17
2018-07-09T17:02:23.422Z,29.20
2018-07-09T17:04:52.671Z,29.19
2018-07-09T17:07:21.948Z,29.60
2018-07-09T17:09:51.174Z,29.69
2018-07-09T17:12:20.570Z,30.10
2018-07-09T17:14:49.902Z,30.31
2018-07-09T17:17:19.242Z,30.30
2018-07-09T17:19:48.743Z,30.38
2018-07-09T17:22:18.242Z,30.31
2018-07-09T17:24:47.931Z,30.29
2018-07-09T17:27:17.815Z,30.33
2018-07-09T17:29:47.129Z,30.44
2018-07-09T17:32:16.578Z,30.43
2018-07-09T17:34:45.846Z,30.47
2018-07-09T17:37:15.294Z,29.82
2018-07-09T17:39:44.703Z,30.15
2018-07-09T17:42:13.953Z,29.89
2018-07-09T17:44:43.390Z,30.32
2018-07-09T17:47:12.753Z,30.40
2018-07-09T17:49:42.003Z,29.83
2018-07-09T17:52:11.270Z,29.75
2018-07-09T17:54:40.716Z,29.05
2018-07-09T17:57:10.073Z,28.97
2018-07-09T17:59:39.547Z,29.02
2018-07-09T18:02:08.866Z,28.95
2018-07-09T18:04:38.075Z,28.70
2018-07-09T18:07:07.595Z,28.93
2018-07-09T18:09:36.995Z,28.88
2018-07-09T18:12:06.380Z,28.14
2018-07-09T18:14:35.726Z,28.27
2018-07-09T18:17:05.019Z,28.62
2018-07-09T18:19:34.520Z,28.88
2018-07-09T18:22:03.865Z,28.65
2018-07-09T18:24:33.202Z,28.70
2018-07-09T18:27:02.480Z,28.53
2018-07-09T18:29:31.710Z,28.63
2018-07-09T18:32:01.523Z,28.79
2018-07-09T18:34:30.824Z,28.82
2018-07-09T18:37:00.194Z,28.64
2018-07-09T18:39:29.409Z,28.49
2018-07-09T18:41:58.685Z,28.57
2018-07-09T18:44:27.921Z,28.27
2018-07-09T18:46:57.318Z,28.48
2018-07-09T18:49:26.566Z,28.36
2018-07-09T18:51:55.812Z,28.25
2018-07-09T18:54:26.044Z,28.08
2018-07-09T18:56:55.449Z,27.96
2018-07-09T18:59:24.773Z,28.07
2018-07-09T19:01:54.036Z,27.56
2018-07-09T19:04:23.375Z,27.89
2018-07-09T19:06:57.532Z,27.60
2018-07-09T19:09:27.450Z,27.58
2018-07-09T19:11:56.643Z,27.69
2018-07-09T19:14:31.309Z,27.67
2018-07-09T19:18:18.430Z,27.56
2018-07-09T19:21:33.089Z,27.47
2018-07-09T19:24:01.442Z,26.90
2018-07-09T19:26:29.033Z,27.12
2018-07-09T19:28:56.900Z,27.18
2018-07-09T19:31:24.670Z,27.18
2018-07-09T19:33:52.537Z,27.12
2018-07-09T19:36:20.310Z,27.06
2018-07-09T19:38:48.080Z,26.85
2018-07-09T19:41:15.930Z,26.75
2018-07-09T19:43:43.797Z,26.37
2018-07-09T19:46:11.438Z,26.53
2018-07-09T19:48:39.223Z,26.34
2018-07-09T19:51:07.328Z,26.57
2018-07-09T19:53:35.063Z,26.49
2018-07-09T19:56:03.146Z,26.37
2018-07-09T19:58:30.790Z,26.35
2018-07-09T20:00:58.551Z,26.17
2018-07-09T20:03:26.420Z,26.07
2018-07-09T20:05:54.189Z,25.97
2018-07-09T20:08:21.953Z,26.12
2018-07-09T20:10:54.556Z,26.12
2018-07-09T20:13:27.694Z,26.09
2018-07-09T20:16:00.710Z,26.23
2018-07-09T20:18:28.473Z,26.36
2018-07-09T20:20:56.261Z,26.08
2018-07-09T20:23:24.106Z,26.22
2018-07-09T20:25:51.972Z,26.34
2018-07-09T20:28:19.742Z,26.19
2018-07-09T20:30:47.604Z,25.93
2018-07-09T20:33:15.542Z,25.95
2018-07-09T20:35:43.234Z,25.91
2018-07-09T20:38:11.001Z,25.97
2018-07-09T20:40:38.873Z,25.99
2018-07-09T20:43:06.573Z,25.80
2018-07-09T20:45:34.570Z,25.96
2018-07-09T20:48:02.266Z,26.04
2018-07-09T20:50:30.083Z,25.73
2018-07-09T20:52:57.689Z,25.85
2018-07-09T20:55:25.410Z,26.00
2018-07-09T20:57:53.125Z,26.02
2018-07-09T21:00:21.015Z,26.00
2018-07-09T21:02:48.812Z,25.93
2018-07-09T21:05:16.617Z,25.86
2018-07-09T21:07:44.351Z,25.74
2018-07-09T21:10:12.147Z,25.87
2018-07-09T21:12:44.830Z,26.01
2018-07-09T21:15:12.849Z,25.96
2018-07-09T21:17:40.558Z,25.65
2018-07-09T21:20:08.321Z,25.55
2018-07-09T21:22:36.292Z,25.33
2018-07-09T21:25:04.112Z,25.51
2018-07-09T21:27:31.823Z,25.50
2018-07-09T21:29:59.615Z,25.46
2018-07-09T21:32:27.664Z,25.39
2018-07-09T21:34:55.532Z,25.47
2018-07-09T21:37:23.259Z,25.54
2018-07-09T21:39:51.156Z,25.50
2018-07-09T21:42:18.823Z,25.64
2018-07-09T21:44:46.628Z,25.37
2018-07-09T21:47:14.245Z,25.25
2018-07-09T21:49:41.903Z,25.26
2018-07-09T21:52:09.798Z,25.33
2018-07-09T21:54:37.592Z,25.03
2018-07-09T21:57:05.408Z,25.21
2018-07-09T21:59:33.170Z,25.28
2018-07-09T22:02:00.994Z,25.29
2018-07-09T22:04:28.704Z,25.27
2018-07-09T22:06:56.567Z,25.24
2018-07-09T22:09:24.225Z,25.18
2018-07-09T22:11:52.091Z,24.91
2018-07-09T22:14:19.758Z,24.90
2018-07-09T22:16:47.640Z,24.85
2018-07-09T22:19:15.902Z,24.97
2018-07-09T22:21:44.081Z,24.87
2018-07-09T22:24:11.739Z,24.86
2018-07-09T22:26:39.605Z,24.96
2018-07-09T22:29:07.437Z,24.82
2018-07-09T22:31:36.696Z,24.93
2018-07-09T22:34:06.033Z,24.77
2018-07-09T22:36:35.373Z,24.79
2018-07-09T22:39:05.302Z,25.03
2018-07-09T22:41:34.862Z,25.02
2018-07-09T22:44:16.272Z,24.97
2018-07-09T22:46:45.785Z,24.86
2018-07-09T22:49:15.275Z,24.78
2018-07-09T22:51:44.720Z,24.68
2018-07-09T22:54:14.045Z,24.91
2018-07-09T22:56:43.455Z,25.17
2018-07-09T22:59:12.763Z,24.98
2018-07-09T23:01:42.204Z,24.91
2018-07-09T23:04:11.513Z,25.23
2018-07-09T23:06:40.805Z,25.29
2018-07-09T23:09:55.675Z,24.84
2018-07-09T23:13:37.883Z,24.98
2018-07-09T23:16:44.359Z,25.25
2018-07-09T23:19:28.369Z,25.18
2018-07-09T23:22:08.666Z,24.81
2018-07-09T23:24:36.424Z,24.79
2018-07-09T23:27:04.291Z,24.94
2018-07-09T23:29:32.064Z,24.93
2018-07-09T23:31:59.926Z,25.07
2018-07-09T23:34:27.794Z,25.21
2018-07-09T23:36:55.553Z,25.19
2018-07-09T23:39:23.420Z,24.93
2018-07-09T23:41:51.332Z,24.84
2018-07-09T23:44:19.055Z,24.96
2018-07-09T23:46:46.919Z,25.11
2018-07-09T23:49:14.685Z,25.12
2018-07-09T23:51:42.344Z,25.19
2018-07-09T23:54:10.001Z,25.21
2018-07-09T23:58:53.413Z,25.27
